createdAt,value
2022-11-08T00:02:22.816Z,99997.53
2022-11-08T00:04:52.188Z,99982.97
2022-11-08T00:10:31.829Z,99977.09
2022-11-08T00:13:13.988Z,99970.41
2022-11-08T00:15:43.294Z,99966.19
2022-11-08T00:18:12.927Z,99954.25
2022-11-08T00:20:42.209Z,99962.84
2022-11-08T00:23:13.996Z,99953.50
2022-11-08T00:25:45.879Z,99953.88
2022-11-08T00:28:15.519Z,99938.09
2022-11-08T00:30:44.936Z,99948.50
2022-11-08T00:35:49.209Z,99937.53
2022-11-08T00:38:18.541Z,99933.28
2022-11-08T00:43:27.363Z,99933.19
2022-11-08T00:45:56.590Z,99923.56
2022-11-08T00:48:26.147Z,99924.44
2022-11-08T00:51:03.883Z,99920.28
2022-11-08T00:53:33.572Z,99907.41
2022-11-08T00:56:06.911Z,99910.81
2022-11-08T00:58:36.568Z,99897.91
2022-11-08T01:01:14.018Z,99899.75
2022-11-08T01:03:43.499Z,99898.06
2022-11-08T01:06:14.192Z,99891.22
2022-11-08T01:08:49.395Z,99875.63
2022-11-08T01:11:24.643Z,99882.63
2022-11-08T01:13:59.939Z,99878.31
2022-11-08T01:16:32.663Z,99870.69
2022-11-08T01:19:02.367Z,99881.91
2022-11-08T01:21:31.833Z,99864.72
2022-11-08T01:24:01.038Z,99889.63
2022-11-08T01:26:32.759Z,99880.97
2022-11-08T01:29:01.632Z,99893.22
2022-11-08T01:31:38.535Z,99888.88
2022-11-08T01:34:07.833Z,99896.53
2022-11-08T01:36:36.956Z,99889.63
2022-11-08T01:39:06.558Z,99883.59
2022-11-08T01:41:37.676Z,99865.56
2022-11-08T01:44:07.355Z,99883.69
2022-11-08T01:46:41.991Z,99886.25
2022-11-08T01:49:50.296Z,99889.66
2022-11-08T01:52:26.753Z,99894.75
2022-11-08T01:58:02.448Z,99887.78
2022-11-08T02:00:32.146Z,99895.50
2022-11-08T02:03:02.784Z,99895.63
2022-11-08T02:05:33.160Z,99887.13
2022-11-08T02:08:12.893Z,99884.41
2022-11-08T02:10:44.467Z,99890.25
2022-11-08T02:13:17.646Z,99882.66
2022-11-08T02:15:47.000Z,99880.97
2022-11-08T02:18:17.676Z,99876.69
2022-11-08T02:20:59.832Z,99874.03
2022-11-08T02:23:31.948Z,99859.56
2022-11-08T02:26:03.836Z,99869.09
2022-11-08T02:28:39.487Z,99869.06
2022-11-08T02:31:10.943Z,99860.50
2022-11-08T02:33:41.009Z,99834.72
2022-11-08T02:36:17.728Z,99852.00
2022-11-08T02:38:54.959Z,99843.63
2022-11-08T02:41:31.190Z,99835.97
2022-11-08T02:44:00.458Z,99841.09
2022-11-08T02:46:29.669Z,99839.97
2022-11-08T02:49:03.918Z,99834.84
2022-11-08T02:51:32.988Z,99840.00
2022-11-08T02:54:02.845Z,99834.94
2022-11-08T02:56:34.054Z,99822.00
2022-11-08T02:59:03.348Z,99832.47
2022-11-08T03:01:32.648Z,99835.06
2022-11-08T03:04:07.383Z,99844.47
2022-11-08T03:06:36.544Z,99827.38
2022-11-08T03:09:06.190Z,99817.16
2022-11-08T03:11:42.349Z,99814.44
2022-11-08T03:14:11.632Z,99820.53
2022-11-08T03:16:40.763Z,99813.53
2022-11-08T03:19:11.756Z,99798.97
2022-11-08T03:21:41.176Z,99814.53
2022-11-08T03:24:18.059Z,99792.06
2022-11-08T03:26:49.471Z,99816.19
2022-11-08T03:29:18.723Z,99819.56
2022-11-08T03:31:52.951Z,99811.84
2022-11-08T03:34:22.429Z,99803.38
2022-11-08T03:36:52.700Z,99806.00
2022-11-08T03:39:21.988Z,99802.63
2022-11-08T03:41:53.340Z,99805.97
2022-11-08T03:44:25.114Z,99804.31
2022-11-08T03:46:59.994Z,99799.16
2022-11-08T03:49:29.858Z,99797.47
2022-11-08T03:52:10.008Z,99799.25
2022-11-08T03:54:39.526Z,99778.72
2022-11-08T03:57:14.255Z,99796.69
2022-11-08T03:59:45.909Z,99773.50
2022-11-08T04:02:20.698Z,99764.06
2022-11-08T04:04:50.909Z,99785.44
2022-11-08T04:07:20.048Z,99793.09
2022-11-08T04:09:54.403Z,99784.66
2022-11-08T04:12:38.609Z,99781.13
2022-11-08T04:15:19.348Z,99761.34
2022-11-08T04:18:08.312Z,99783.66
2022-11-08T04:23:40.130Z,99793.94
2022-11-08T04:26:11.271Z,99787.13
2022-11-08T04:28:43.948Z,99787.97
2022-11-08T04:31:15.462Z,99783.72
2022-11-08T04:33:45.004Z,99777.78
2022-11-08T04:36:15.520Z,99779.50
2022-11-08T04:38:45.115Z,99780.34
2022-11-08T04:43:54.858Z,99771.03
2022-11-08T04:46:26.620Z,99751.09
2022-11-08T04:48:56.568Z,99774.63
2022-11-08T04:51:28.465Z,99777.88
2022-11-08T04:53:59.195Z,99770.19
2022-11-08T04:56:29.907Z,99754.59
2022-11-08T04:59:02.571Z,99777.03
2022-11-08T05:01:33.270Z,99771.91
2022-11-08T05:04:07.752Z,99778.84
2022-11-08T05:06:37.211Z,99759.97
2022-11-08T05:09:13.830Z,99780.69
2022-11-08T05:11:43.097Z,99777.28
2022-11-08T05:14:19.282Z,99758.44
2022-11-08T05:16:48.875Z,99769.53
2022-11-08T05:19:43.869Z,99764.41
2022-11-08T05:22:39.981Z,99772.97
2022-11-08T05:25:10.281Z,99774.72
2022-11-08T05:27:39.420Z,99776.44
2022-11-08T05:30:11.796Z,99767.97
2022-11-08T05:32:41.049Z,99762.00
2022-11-08T05:35:10.348Z,99757.72
2022-11-08T05:37:43.878Z,99759.47
2022-11-08T05:40:13.849Z,99754.34
2022-11-08T05:42:44.980Z,99754.38
2022-11-08T05:45:16.268Z,99755.28
2022-11-08T05:47:49.182Z,99751.81
2022-11-08T05:50:20.154Z,99744.09
2022-11-08T05:52:54.337Z,99748.41
2022-11-08T05:55:23.786Z,99742.44
2022-11-08T05:57:54.560Z,99756.91
2022-11-08T06:00:26.739Z,99751.00
2022-11-08T06:02:55.990Z,99739.94
2022-11-08T06:05:25.067Z,99735.78
2022-11-08T06:07:56.654Z,99735.00
2022-11-08T06:10:26.202Z,99728.19
2022-11-08T06:12:59.991Z,99724.63
2022-11-08T06:15:31.369Z,99736.81
2022-11-08T06:18:04.180Z,99711.84
2022-11-08T06:20:34.589Z,99729.94
2022-11-08T06:23:04.010Z,99709.53
2022-11-08T06:25:41.105Z,99720.53
2022-11-08T06:28:14.142Z,99728.25
2022-11-08T06:30:45.442Z,99725.63
2022-11-08T06:33:20.186Z,99728.31
2022-11-08T06:35:54.946Z,99720.56
2022-11-08T06:38:24.262Z,99725.75
2022-11-08T06:40:53.652Z,99728.34
2022-11-08T06:43:28.346Z,99712.09
2022-11-08T06:46:02.550Z,99724.16
2022-11-08T06:48:35.843Z,99726.72
2022-11-08T06:51:10.690Z,99722.50
2022-11-08T06:53:40.397Z,99728.50
2022-11-08T06:56:09.956Z,99713.97
2022-11-08T06:58:39.247Z,99712.34
2022-11-08T07:01:13.192Z,99709.81
2022-11-08T07:03:43.236Z,99712.44
2022-11-08T07:06:12.520Z,99710.00
2022-11-08T07:08:41.678Z,99709.97
2022-11-08T07:11:10.960Z,99709.94
2022-11-08T07:13:40.130Z,99709.09
2022-11-08T07:16:11.567Z,99707.31
2022-11-08T07:18:40.956Z,99714.22
2022-11-08T07:21:15.116Z,99710.03
2022-11-08T07:23:44.647Z,99725.38
2022-11-08T07:26:13.695Z,99724.47
2022-11-08T07:28:43.037Z,99718.56
2022-11-08T07:31:14.815Z,99716.84
2022-11-08T07:33:49.257Z,99722.91
2022-11-08T07:36:18.411Z,99718.66
2022-11-08T07:39:02.473Z,99711.84
2022-11-08T07:41:34.532Z,99716.19
2022-11-08T07:44:08.849Z,99710.97
2022-11-08T07:46:40.125Z,99703.25
2022-11-08T07:49:09.265Z,99713.63
2022-11-08T07:51:38.452Z,99705.03
2022-11-08T07:54:07.801Z,99712.72
2022-11-08T07:56:37.068Z,99705.97
2022-11-08T07:59:07.960Z,99698.28
2022-11-08T08:01:49.595Z,99704.28
2022-11-08T08:04:18.776Z,99705.19
2022-11-08T08:06:47.897Z,99693.19
2022-11-08T08:11:53.930Z,99701.00
2022-11-08T08:14:23.788Z,99692.53
2022-11-08T08:16:55.175Z,99684.97
2022-11-08T08:19:24.361Z,99686.75
2022-11-08T08:21:58.788Z,99679.94
2022-11-08T08:24:28.539Z,99676.56
2022-11-08T08:26:57.640Z,99689.47
2022-11-08T08:29:27.053Z,99675.81
2022-11-08T08:31:58.277Z,99665.56
2022-11-08T08:34:27.736Z,99668.94
2022-11-08T08:36:56.860Z,99682.66
2022-11-08T08:39:26.571Z,99671.56
2022-11-08T08:44:39.981Z,99675.88
2022-11-08T08:47:11.038Z,99678.47
2022-11-08T08:49:40.195Z,99664.78
2022-11-08T08:52:10.847Z,99676.72
2022-11-08T08:54:45.035Z,99677.53
2022-11-08T08:57:14.520Z,99656.91
2022-11-08T09:02:39.776Z,99669.81
2022-11-08T09:05:13.123Z,99649.97
2022-11-08T09:07:43.372Z,99668.88
2022-11-08T09:10:13.048Z,99672.31
2022-11-08T09:12:42.221Z,99673.16
2022-11-08T09:15:12.547Z,99674.06
2022-11-08T09:17:43.925Z,99676.63
2022-11-08T09:20:14.528Z,99663.78
2022-11-08T09:22:43.690Z,99664.63
2022-11-08T09:25:13.196Z,99634.53
2022-11-08T09:27:42.552Z,99668.03
2022-11-08T09:30:12.015Z,99656.91
2022-11-08T09:35:32.993Z,99642.41
2022-11-08T09:38:02.337Z,99649.28
2022-11-08T09:40:35.173Z,99651.00
2022-11-08T09:43:22.757Z,99653.63
2022-11-08T09:45:55.566Z,99645.91
2022-11-08T09:48:31.735Z,99648.47
2022-11-08T09:51:06.011Z,99645.91
2022-11-08T09:53:42.786Z,99645.06
2022-11-08T09:56:18.437Z,99645.06
2022-11-08T09:58:53.943Z,99652.75
2022-11-08T10:01:27.283Z,99639.00
2022-11-08T10:04:01.905Z,99639.81
2022-11-08T10:06:54.058Z,99640.72
2022-11-08T10:09:46.201Z,99633.84
2022-11-08T10:12:23.844Z,99634.69
2022-11-08T10:15:07.649Z,99632.13
2022-11-08T10:18:06.740Z,99633.03
2022-11-08T10:20:54.570Z,99632.16
2022-11-08T10:23:29.917Z,99627.00
2022-11-08T10:26:02.553Z,99614.94
2022-11-08T10:28:37.863Z,99631.28
2022-11-08T10:31:08.280Z,99631.25
2022-11-08T10:33:43.527Z,99635.53
2022-11-08T10:36:21.993Z,99626.13
2022-11-08T10:38:59.382Z,99638.13
2022-11-08T10:41:36.709Z,99626.13
2022-11-08T10:44:08.344Z,99633.81
2022-11-08T10:46:44.425Z,99632.09
2022-11-08T10:49:18.485Z,99620.06
2022-11-08T10:51:58.755Z,99628.66
2022-11-08T10:54:43.757Z,99622.69
2022-11-08T10:57:15.112Z,99629.50
2022-11-08T10:59:45.279Z,99626.91
2022-11-08T11:02:30.303Z,99626.16
2022-11-08T11:05:21.776Z,99626.16
2022-11-08T11:08:04.079Z,99615.03
2022-11-08T11:10:34.964Z,99621.00
2022-11-08T11:13:12.619Z,99615.03
2022-11-08T11:15:48.335Z,99623.56
2022-11-08T11:18:25.852Z,99624.41
2022-11-08T11:21:11.560Z,99621.00
2022-11-08T11:23:46.152Z,99609.84
2022-11-08T11:26:29.480Z,99614.97
2022-11-08T11:29:12.835Z,99618.41
2022-11-08T11:31:43.691Z,99615.88
2022-11-08T11:34:44.672Z,99605.63
2022-11-08T11:37:22.365Z,99609.91
2022-11-08T11:40:05.331Z,99603.06
2022-11-08T11:42:48.092Z,99603.06
2022-11-08T11:45:21.682Z,99598.78
2022-11-08T11:47:54.020Z,99603.09
2022-11-08T11:50:31.008Z,99600.53
2022-11-08T11:53:04.157Z,99601.41
2022-11-08T11:55:51.046Z,99597.13
2022-11-08T11:58:38.474Z,99585.13
2022-11-08T12:01:18.383Z,99606.50
2022-11-08T12:04:03.696Z,99608.19
2022-11-08T12:06:44.861Z,99610.75
2022-11-08T12:09:30.094Z,99604.72
2022-11-08T12:12:16.373Z,99605.59
2022-11-08T12:15:02.450Z,99612.41
2022-11-08T12:18:09.058Z,99623.56
2022-11-08T12:20:52.390Z,99615.00
2022-11-08T12:23:39.691Z,99615.03
2022-11-08T12:26:20.962Z,99603.84
2022-11-08T12:29:04.980Z,99614.16
2022-11-08T12:31:37.370Z,99608.13
2022-11-08T12:34:20.542Z,99615.88
2022-11-08T12:37:05.612Z,99616.72
2022-11-08T12:39:40.486Z,99618.44
2022-11-08T12:42:22.495Z,99609.84
2022-11-08T12:45:15.024Z,99611.56
2022-11-08T12:47:48.452Z,99619.28
2022-11-08T12:55:48.998Z,99620.84
2022-11-08T12:58:34.499Z,99626.78
2022-11-08T13:01:08.600Z,99593.38
2022-11-08T13:04:00.561Z,99611.50
2022-11-08T13:06:41.185Z,99616.63
2022-11-08T13:09:25.562Z,99609.81
2022-11-08T13:12:04.147Z,99611.53
2022-11-08T13:14:40.043Z,99610.72
2022-11-08T13:17:26.442Z,99613.28
2022-11-08T13:20:04.494Z,99611.56
2022-11-08T13:23:02.048Z,99583.31
2022-11-08T13:25:41.711Z,99603.03
2022-11-08T13:28:41.156Z,99596.19
2022-11-08T13:31:32.625Z,99586.81
2022-11-08T13:34:27.040Z,99549.94
2022-11-08T13:37:08.033Z,99587.66
2022-11-08T13:39:59.816Z,99582.53
2022-11-08T13:42:41.521Z,99573.13
2022-11-08T13:45:36.690Z,99576.56
2022-11-08T13:48:22.883Z,99581.69
2022-11-08T13:50:54.518Z,99587.66
2022-11-08T13:53:49.370Z,99569.72
2022-11-08T13:56:52.352Z,99583.41
2022-11-08T13:59:51.410Z,99581.69
2022-11-08T14:02:39.307Z,99573.97
2022-11-08T14:05:33.327Z,99589.38
2022-11-08T14:11:16.352Z,99581.66
2022-11-08T14:14:11.208Z,99590.19
2022-11-08T14:16:49.738Z,99596.19
2022-11-08T14:19:28.362Z,99572.13
2022-11-08T14:21:59.744Z,99602.16
2022-11-08T14:24:37.256Z,99583.31
2022-11-08T14:27:06.632Z,99586.72
2022-11-08T14:29:40.819Z,99602.16
2022-11-08T14:32:18.905Z,99599.59
2022-11-08T14:34:50.093Z,99616.66
2022-11-08T14:37:25.194Z,99600.38
2022-11-08T14:39:59.429Z,99602.94
2022-11-08T14:42:28.674Z,99608.06
2022-11-08T14:45:00.250Z,99608.06
2022-11-08T14:47:32.025Z,99605.50
2022-11-08T14:50:03.511Z,99605.53
2022-11-08T14:52:34.599Z,99605.50
2022-11-08T14:55:07.233Z,99599.53
2022-11-08T14:57:38.222Z,99604.66
2022-11-08T15:00:16.936Z,99602.94
2022-11-08T15:02:49.165Z,99572.91
2022-11-08T15:05:40.610Z,99573.78
2022-11-08T15:08:24.132Z,99593.53
2022-11-08T15:11:00.741Z,99578.16
2022-11-08T15:13:31.848Z,99570.47
2022-11-08T15:16:08.065Z,99591.84
2022-11-08T15:18:39.602Z,99603.84
2022-11-08T15:21:28.426Z,99588.44
2022-11-08T15:24:12.935Z,99591.00
2022-11-08T15:27:00.453Z,99592.75
2022-11-08T15:29:29.535Z,99606.41
2022-11-08T15:32:02.210Z,99598.69
2022-11-08T15:34:39.356Z,99611.53
2022-11-08T15:37:28.839Z,99603.84
2022-11-08T15:40:01.844Z,99604.69
2022-11-08T15:42:34.738Z,99598.69
2022-11-08T15:45:06.136Z,99602.09
2022-11-08T15:50:30.862Z,99600.44
2022-11-08T15:53:04.253Z,99610.72
2022-11-08T15:55:37.761Z,99615.84
2022-11-08T15:58:12.476Z,99618.34
2022-11-08T16:00:47.625Z,99611.56
2022-11-08T16:03:17.344Z,99611.59
2022-11-08T16:05:46.618Z,99620.09
2022-11-08T16:08:20.956Z,99615.84
2022-11-08T16:10:53.097Z,99617.53
2022-11-08T16:13:28.182Z,99612.50
2022-11-08T16:15:57.715Z,99610.75
2022-11-08T16:18:27.073Z,99600.47
2022-11-08T16:20:56.303Z,99616.72
2022-11-08T16:23:27.513Z,99602.97
2022-11-08T16:26:00.489Z,99600.41
2022-11-08T16:28:33.832Z,99605.63
2022-11-08T16:31:10.640Z,99621.03
2022-11-08T16:33:39.821Z,99621.00
2022-11-08T16:36:19.672Z,99623.59
2022-11-08T16:38:56.108Z,99621.00
2022-11-08T16:41:26.892Z,99621.84
2022-11-08T16:43:56.188Z,99611.59
2022-11-08T16:46:31.052Z,99620.19
2022-11-08T16:49:01.803Z,99609.03
2022-11-08T16:51:31.030Z,99609.84
2022-11-08T16:54:04.752Z,99609.84
2022-11-08T16:56:34.046Z,99618.44
2022-11-08T16:59:03.389Z,99616.72
2022-11-08T17:01:35.294Z,99593.56
2022-11-08T17:04:04.223Z,99624.50
2022-11-08T17:06:33.497Z,99625.31
2022-11-08T17:09:05.080Z,99625.34
2022-11-08T17:11:34.522Z,99618.44
2022-11-08T17:14:04.052Z,99621.84
2022-11-08T17:16:33.325Z,99619.25
2022-11-08T17:19:02.487Z,99620.19
2022-11-08T17:21:44.628Z,99626.19
2022-11-08T17:24:21.805Z,99615.94
2022-11-08T17:26:56.987Z,99612.50
2022-11-08T17:29:26.634Z,99615.06
2022-11-08T17:31:55.780Z,99617.63
2022-11-08T17:34:25.123Z,99621.03
2022-11-08T17:36:54.564Z,99610.72
2022-11-08T17:39:25.799Z,99622.78
2022-11-08T17:42:00.193Z,99622.78
2022-11-08T17:44:30.610Z,99611.63
2022-11-08T17:46:59.726Z,99614.19
2022-11-08T17:49:28.865Z,99609.94
2022-11-08T17:51:58.028Z,99618.47
2022-11-08T17:54:34.143Z,99630.50
2022-11-08T17:57:03.426Z,99625.34
2022-11-08T17:59:32.579Z,99612.53
2022-11-08T18:02:02.934Z,99612.50
2022-11-08T18:04:32.114Z,99604.81
2022-11-08T18:07:01.433Z,99609.09
2022-11-08T18:09:43.401Z,99618.50
2022-11-08T18:12:12.636Z,99609.97
2022-11-08T18:14:41.790Z,99615.94
2022-11-08T18:17:11.257Z,99599.63
2022-11-08T18:19:40.705Z,99623.63
2022-11-08T18:22:09.871Z,99639.91
2022-11-08T18:24:42.745Z,99609.97
2022-11-08T18:27:14.386Z,99610.75
2022-11-08T18:29:48.650Z,99627.06
2022-11-08T18:32:19.791Z,99625.38
2022-11-08T18:34:49.170Z,99628.81
2022-11-08T18:37:18.677Z,99622.81
2022-11-08T18:39:54.852Z,99640.78
2022-11-08T18:42:24.239Z,99637.38
2022-11-08T18:44:53.604Z,99622.78
2022-11-08T18:47:23.074Z,99633.06
2022-11-08T18:49:55.077Z,99645.06
2022-11-08T18:52:24.440Z,99644.22
2022-11-08T18:54:55.717Z,99627.94
2022-11-08T18:57:30.379Z,99651.09
2022-11-08T19:00:01.210Z,99652.81
2022-11-08T19:02:33.284Z,99637.41
2022-11-08T19:05:07.794Z,99645.09
2022-11-08T19:07:37.364Z,99641.69
2022-11-08T19:10:10.227Z,99650.25
2022-11-08T19:12:39.588Z,99645.09
2022-11-08T19:15:11.264Z,99651.16
2022-11-08T19:17:40.700Z,99645.19
2022-11-08T19:20:11.153Z,99652.84
2022-11-08T19:22:45.710Z,99636.56
2022-11-08T19:25:18.282Z,99648.63
2022-11-08T19:27:47.898Z,99623.69
2022-11-08T19:30:17.313Z,99646.03
2022-11-08T19:32:46.648Z,99642.63
2022-11-08T19:35:16.358Z,99656.31
2022-11-08T19:37:45.866Z,99654.66
2022-11-08T19:40:17.379Z,99643.47
2022-11-08T19:42:46.768Z,99649.44
2022-11-08T19:45:16.193Z,99659.78
2022-11-08T19:47:52.033Z,99668.34
2022-11-08T19:50:23.564Z,99647.81
2022-11-08T19:52:52.739Z,99658.06
2022-11-08T19:55:24.019Z,99676.06
2022-11-08T19:57:53.194Z,99674.31
2022-11-08T20:00:22.605Z,99674.31
2022-11-08T20:02:54.192Z,99672.63
2022-11-08T20:05:23.865Z,99663.19
2022-11-08T20:08:01.454Z,99653.78
2022-11-08T20:10:32.837Z,99673.50
2022-11-08T20:13:10.152Z,99675.22
2022-11-08T20:15:39.827Z,99684.66
2022-11-08T20:18:09.197Z,99680.38
2022-11-08T20:20:44.723Z,99665.78
2022-11-08T20:23:18.315Z,99682.09
2022-11-08T20:25:49.669Z,99673.50
2022-11-08T20:28:19.322Z,99674.41
2022-11-08T20:30:49.206Z,99676.97
2022-11-08T20:33:18.657Z,99664.09
2022-11-08T20:35:47.820Z,99669.28
2022-11-08T20:38:18.430Z,99675.31
2022-11-08T20:40:50.163Z,99684.72
2022-11-08T20:43:34.061Z,99680.47
2022-11-08T20:46:10.389Z,99660.75
2022-11-08T20:48:42.834Z,99678.75
2022-11-08T20:53:55.058Z,99678.75
2022-11-08T20:56:28.344Z,99679.63
2022-11-08T20:58:58.137Z,99660.75
2022-11-08T21:01:30.346Z,99670.19
2022-11-08T21:04:00.483Z,99662.50
2022-11-08T21:06:36.375Z,99671.94
2022-11-08T21:09:33.047Z,99673.66
2022-11-08T21:12:05.396Z,99674.53
2022-11-08T21:17:26.136Z,99662.53
2022-11-08T21:20:01.030Z,99675.44
2022-11-08T21:22:30.316Z,99666.00
2022-11-08T21:25:03.260Z,99664.28
2022-11-08T21:27:41.640Z,99664.25
2022-11-08T21:30:17.337Z,99670.28
2022-11-08T21:32:46.641Z,99664.28
2022-11-08T21:35:15.937Z,99659.13
2022-11-08T21:37:45.382Z,99671.97
2022-11-08T21:40:15.280Z,99673.72
2022-11-08T21:42:48.834Z,99654.88
2022-11-08T21:45:18.721Z,99673.72
2022-11-08T21:47:51.779Z,99680.59
2022-11-08T21:50:22.130Z,99668.56
2022-11-08T21:52:56.420Z,99676.31
2022-11-08T21:55:25.494Z,99677.16
2022-11-08T21:57:56.848Z,99677.16
2022-11-08T22:00:26.356Z,99668.56
2022-11-08T22:02:56.028Z,99676.31
2022-11-08T22:05:30.688Z,99675.44
2022-11-08T22:08:00.104Z,99669.44
2022-11-08T22:10:29.599Z,99660.00
2022-11-08T22:15:35.975Z,99639.41
2022-11-08T22:18:15.193Z,99662.56
2022-11-08T22:21:01.156Z,99682.31
2022-11-08T22:23:30.487Z,99683.16
2022-11-08T22:25:59.944Z,99674.59
2022-11-08T22:28:31.631Z,99656.59
2022-11-08T22:31:00.897Z,99673.75
2022-11-08T22:33:30.165Z,99674.59
2022-11-08T22:36:04.652Z,99683.16
2022-11-08T22:38:33.992Z,99690.03
2022-11-08T22:41:03.321Z,99684.03
2022-11-08T22:43:35.595Z,99678.91
2022-11-08T22:46:05.616Z,99675.44
2022-11-08T22:48:34.756Z,99689.19
2022-11-08T22:53:44.950Z,99685.72
2022-11-08T22:56:14.065Z,99675.44
2022-11-08T22:58:45.530Z,99693.44
2022-11-08T23:01:16.212Z,99682.31
2022-11-08T23:03:47.577Z,99681.47
2022-11-08T23:06:17.716Z,99684.88
2022-11-08T23:08:48.951Z,99683.19
2022-11-08T23:11:33.655Z,99712.34
2022-11-08T23:14:17.913Z,99690.91
2022-11-08T23:16:47.945Z,99679.75
2022-11-08T23:19:38.097Z,99684.03
2022-11-08T23:22:26.808Z,99688.34
2022-11-08T23:24:56.247Z,99680.63
2022-11-08T23:27:38.948Z,99667.75
2022-11-08T23:30:26.992Z,99684.88
2022-11-08T23:32:56.196Z,99693.47
2022-11-08T23:35:25.562Z,99690.91
2022-11-08T23:37:54.960Z,99671.16
2022-11-08T23:40:37.092Z,99684.03
2022-11-08T23:43:25.088Z,99675.47
2022-11-08T23:45:56.320Z,99676.31
2022-11-08T23:48:26.260Z,99685.78
2022-11-08T23:50:56.895Z,99680.63
2022-11-08T23:53:26.881Z,99696.91
2022-11-08T23:55:56.574Z,99689.19
2022-11-08T23:58:30.843Z,99690.91
